createdAt,value
2017-10-29T00:04:56.465Z,99540.47
2017-10-29T00:09:58.360Z,99522.34
2017-10-29T00:15:00.262Z,99521.72
2017-10-29T00:20:02.160Z,99513.14
2017-10-29T00:25:04.076Z,99496.70
2017-10-29T00:30:06.866Z,99488.20
2017-10-29T00:35:09.611Z,99460.94
2017-10-29T00:40:11.490Z,99457.67
2017-10-29T00:45:13.424Z,99431.69
2017-10-29T00:50:15.322Z,99452.30
2017-10-29T00:55:17.230Z,99460.14
2017-10-29T01:00:19.225Z,99442.12
2017-10-29T01:05:21.156Z,99436.42
2017-10-29T01:10:23.079Z,99413.95
2017-10-29T01:15:25.790Z,99401.63
2017-10-29T01:20:27.711Z,99397.28
2017-10-29T01:25:30.451Z,99391.80
2017-10-29T01:30:32.371Z,99377.96
2017-10-29T01:35:34.331Z,99385.93
2017-10-29T01:40:36.289Z,99376.98
2017-10-29T01:45:38.200Z,99350.19
2017-10-29T01:50:40.099Z,99318.09
2017-10-29T01:55:42.018Z,99304.27
2017-10-29T02:00:43.906Z,99321.52
2017-10-29T02:05:45.796Z,99325.81
2017-10-29T02:10:47.739Z,99322.05
2017-10-29T02:15:49.662Z,99317.08
2017-10-29T02:20:52.334Z,99302.56
2017-10-29T02:25:54.262Z,99318.22
2017-10-29T02:30:56.174Z,99355.66
2017-10-29T02:35:58.079Z,99365.00
2017-10-29T02:41:00.929Z,99369.81
2017-10-29T02:46:02.858Z,99329.72
2017-10-29T02:51:04.820Z,99334.89
2017-10-29T02:56:07.467Z,99328.53
2017-10-29T03:01:09.377Z,99337.52
2017-10-29T03:06:11.380Z,99326.26
2017-10-29T03:11:13.356Z,99343.30
2017-10-29T03:16:16.019Z,99365.72
2017-10-29T03:21:17.951Z,99351.51
2017-10-29T03:26:19.885Z,99393.11
2017-10-29T03:31:22.552Z,99396.74
2017-10-29T03:36:24.476Z,99401.42
2017-10-29T03:41:26.402Z,99434.33
2017-10-29T03:46:28.355Z,99430.72
2017-10-29T03:51:30.296Z,99439.05
2017-10-29T03:56:32.245Z,99465.98
2017-10-29T04:01:34.150Z,99467.09
2017-10-29T04:06:36.096Z,99496.17
2017-10-29T04:11:38.019Z,99496.59
2017-10-29T04:16:39.935Z,99490.38
2017-10-29T04:21:42.582Z,99507.93
2017-10-29T04:26:44.524Z,99526.82
2017-10-29T04:31:46.471Z,99514.17
2017-10-29T04:36:49.264Z,99532.89
2017-10-29T04:41:51.215Z,99561.98
2017-10-29T04:46:53.155Z,99557.03
2017-10-29T04:51:55.087Z,99569.97
2017-10-29T04:56:57.004Z,99571.52
2017-10-29T05:01:59.667Z,99588.61
2017-10-29T05:07:01.608Z,99597.78
2017-10-29T05:12:03.490Z,99596.33
2017-10-29T05:17:05.403Z,99610.73
2017-10-29T05:22:07.308Z,99639.88
2017-10-29T05:27:09.256Z,99630.66
2017-10-29T05:32:11.186Z,99627.81
2017-10-29T05:37:13.112Z,99633.71
2017-10-29T05:42:15.088Z,99648.38
2017-10-29T05:47:17.062Z,99648.52
2017-10-29T05:52:19.793Z,99661.39
2017-10-29T05:57:21.764Z,99669.95
2017-10-29T06:02:28.393Z,99686.05
2017-10-29T06:07:32.392Z,99702.73
2017-10-29T06:12:35.319Z,99716.23
2017-10-29T06:17:37.549Z,99727.37
2017-10-29T06:22:39.642Z,99733.27
2017-10-29T06:27:41.914Z,99747.91
2017-10-29T06:32:44.614Z,99767.48
2017-10-29T06:37:46.517Z,99765.20
2017-10-29T06:42:49.184Z,99786.08
2017-10-29T06:47:51.206Z,99797.37
2017-10-29T06:52:53.149Z,99794.45
2017-10-29T06:57:55.932Z,99821.72
2017-10-29T07:02:57.880Z,99839.44
2017-10-29T07:07:59.842Z,99866.60
2017-10-29T07:13:02.013Z,99875.17
2017-10-29T07:18:04.326Z,99898.35
2017-10-29T07:23:07.029Z,99894.56
2017-10-29T07:28:09.077Z,99931.23
2017-10-29T07:33:11.039Z,99954.13
2017-10-29T07:38:13.766Z,99943.41
2017-10-29T07:43:16.468Z,99934.98
2017-10-29T07:48:18.436Z,99957.97
2017-10-29T07:53:20.378Z,99976.22
2017-10-29T07:58:22.937Z,99975.58
2017-10-29T08:03:28.189Z,99993.92
2017-10-29T08:08:30.899Z,100019.80
2017-10-29T08:13:32.974Z,100035.30
2017-10-29T08:18:35.017Z,100061.69
2017-10-29T08:23:38.280Z,100065.11
2017-10-29T08:28:41.877Z,100078.68
2017-10-29T08:33:43.926Z,100079.27
2017-10-29T08:38:45.857Z,100096.98
2017-10-29T08:43:47.804Z,100105.66
2017-10-29T08:48:50.479Z,100122.33
2017-10-29T08:53:52.416Z,100128.87
2017-10-29T08:58:54.362Z,100129.03
2017-10-29T09:03:56.405Z,100142.88
2017-10-29T09:08:58.355Z,100162.42
2017-10-29T09:14:01.184Z,100166.67
2017-10-29T09:19:03.890Z,100188.64
2017-10-29T09:24:05.894Z,100176.27
2017-10-29T09:29:07.828Z,100226.56
2017-10-29T09:34:09.757Z,100247.98
2017-10-29T09:39:11.677Z,100249.71
2017-10-29T09:44:13.592Z,100251.64
2017-10-29T09:49:15.528Z,100256.63
2017-10-29T09:54:18.193Z,100283.80
2017-10-29T09:59:20.156Z,100289.38
2017-10-29T10:04:22.829Z,100309.13
2017-10-29T10:09:24.784Z,100318.43
2017-10-29T10:14:27.438Z,100327.48
2017-10-29T10:19:29.369Z,100343.99
2017-10-29T10:24:31.388Z,100339.41
2017-10-29T10:29:34.114Z,100352.23
2017-10-29T10:34:37.557Z,100355.80
2017-10-29T10:39:39.702Z,100354.71
2017-10-29T10:44:41.893Z,100387.83
2017-10-29T10:49:44.100Z,100390.70
2017-10-29T10:54:46.496Z,100383.78
2017-10-29T10:59:49.794Z,100394.86
2017-10-29T11:04:52.683Z,100406.02
2017-10-29T11:09:55.297Z,100403.51
2017-10-29T11:15:01.374Z,100402.72
2017-10-29T11:20:04.095Z,100421.64
2017-10-29T11:25:09.478Z,100423.31
2017-10-29T11:30:15.804Z,100426.93
2017-10-29T11:35:23.556Z,100431.77
2017-10-29T11:40:31.173Z,100425.33
2017-10-29T11:45:33.819Z,100449.81
2017-10-29T11:50:35.736Z,100453.77
2017-10-29T11:55:39.586Z,100453.91
2017-10-29T12:00:45.457Z,100461.36
2017-10-29T12:05:52.894Z,100458.25
2017-10-29T12:10:58.908Z,100487.44
2017-10-29T12:16:06.805Z,100491.59
2017-10-29T12:21:10.825Z,100488.70
2017-10-29T12:26:17.490Z,100486.02
2017-10-29T12:31:25.072Z,100496.92
2017-10-29T12:36:27.039Z,100512.42
2017-10-29T12:41:29.032Z,100518.41
2017-10-29T12:46:33.416Z,100537.69
2017-10-29T12:51:37.164Z,100538.33
2017-10-29T12:56:39.294Z,100540.50
2017-10-29T13:01:41.235Z,100554.34
2017-10-29T13:06:43.138Z,100546.63
2017-10-29T13:11:45.027Z,100556.72
2017-10-29T13:16:46.929Z,100576.25
2017-10-29T13:21:49.760Z,100589.09
2017-10-29T13:26:51.697Z,100655.61
2017-10-29T13:31:54.310Z,100695.20
2017-10-29T13:36:56.949Z,100675.38
2017-10-29T13:41:58.908Z,100661.17
2017-10-29T13:47:00.819Z,100684.50
2017-10-29T13:52:02.788Z,100694.45
2017-10-29T13:57:04.694Z,100700.98
2017-10-29T14:02:06.842Z,100717.33
2017-10-29T14:07:08.755Z,100721.14
2017-10-29T14:12:11.557Z,100711.95
2017-10-29T14:17:13.467Z,100724.26
2017-10-29T14:22:15.376Z,100730.67
2017-10-29T14:27:17.295Z,100733.98
2017-10-29T14:32:19.967Z,100741.55
2017-10-29T14:37:21.990Z,100743.22
2017-10-29T14:42:23.953Z,100755.38
2017-10-29T14:47:25.940Z,100755.94
2017-10-29T14:52:27.964Z,100776.67
2017-10-29T14:57:29.871Z,100776.14
2017-10-29T15:02:31.865Z,100777.54
2017-10-29T15:07:33.787Z,100761.94
2017-10-29T15:12:35.735Z,100780.48
2017-10-29T15:17:37.796Z,100761.24
2017-10-29T15:22:39.745Z,100769.81
2017-10-29T15:27:41.836Z,100771.75
2017-10-29T15:32:44.531Z,100783.47
2017-10-29T15:37:46.500Z,100784.39
2017-10-29T15:42:53.743Z,100795.45
2017-10-29T15:47:56.079Z,100801.11
2017-10-29T15:52:59.746Z,100797.05
2017-10-29T15:58:01.880Z,100817.64
2017-10-29T16:03:03.853Z,100795.50
2017-10-29T16:08:05.840Z,100831.08
2017-10-29T16:13:07.812Z,100839.59
2017-10-29T16:18:09.965Z,100851.61
2017-10-29T16:23:11.891Z,100871.39
2017-10-29T16:28:14.165Z,100884.11
2017-10-29T16:33:16.130Z,100888.53
2017-10-29T16:38:18.097Z,100891.59
2017-10-29T16:43:20.084Z,100903.88
2017-10-29T16:48:22.091Z,100896.73
2017-10-29T16:53:24.126Z,100915.04
2017-10-29T16:58:26.881Z,100928.25
2017-10-29T17:03:28.812Z,100936.38
2017-10-29T17:08:30.864Z,100941.57
2017-10-29T17:13:33.505Z,100956.56
2017-10-29T17:18:35.502Z,100972.97
2017-10-29T17:23:37.423Z,100983.61
2017-10-29T17:28:39.513Z,100990.52
2017-10-29T17:33:41.619Z,101002.30
2017-10-29T17:38:43.582Z,101012.00
2017-10-29T17:43:45.620Z,101021.16
2017-10-29T17:48:50.263Z,101027.36
2017-10-29T17:53:54.281Z,101030.37
2017-10-29T17:59:05.838Z,101042.59
2017-10-29T18:04:08.494Z,101055.23
2017-10-29T18:09:10.536Z,101050.67
2017-10-29T18:14:12.469Z,101051.84
2017-10-29T18:19:14.541Z,101071.81
2017-10-29T18:24:16.500Z,101076.46
2017-10-29T18:29:19.187Z,101079.12
2017-10-29T18:34:21.133Z,101076.44
2017-10-29T18:39:23.031Z,101067.95
2017-10-29T18:49:35.315Z,101078.97
2017-10-29T18:54:41.535Z,101064.72
2017-10-29T18:59:48.750Z,101081.23
2017-10-29T19:04:52.068Z,101082.07
2017-10-29T19:09:54.870Z,101083.47
2017-10-29T19:14:57.931Z,101090.36
2017-10-29T19:19:59.952Z,101097.52
2017-10-29T19:25:08.316Z,101105.66
2017-10-29T19:30:10.416Z,101108.27
2017-10-29T19:35:12.431Z,101121.70
2017-10-29T19:40:20.132Z,101122.55
2017-10-29T19:45:22.426Z,101118.44
2017-10-29T19:50:24.454Z,101123.47
2017-10-29T19:55:26.496Z,101133.64
2017-10-29T20:00:29.183Z,101147.00
2017-10-29T20:05:38.079Z,101156.59
2017-10-29T20:10:40.746Z,101161.12
2017-10-29T20:15:44.389Z,101177.65
2017-10-29T20:20:47.103Z,101178.83
2017-10-29T20:25:49.151Z,101195.94
2017-10-29T20:30:51.677Z,101199.31
2017-10-29T20:35:53.736Z,101203.14
2017-10-29T20:40:55.840Z,101120.01
2017-10-29T20:46:02.451Z,101190.69
2017-10-29T20:51:04.719Z,101184.45
2017-10-29T20:56:07.681Z,101188.34
2017-10-29T21:01:10.656Z,101208.38
2017-10-29T21:06:13.458Z,101214.83
2017-10-29T21:11:16.139Z,101225.45
2017-10-29T21:16:18.444Z,101232.06
2017-10-29T21:21:21.814Z,101236.19
2017-10-29T21:26:24.092Z,101237.97
2017-10-29T21:31:27.230Z,101242.36
2017-10-29T21:36:29.609Z,101236.77
2017-10-29T21:41:31.707Z,101249.78
2017-10-29T21:46:33.728Z,101253.50
2017-10-29T21:51:35.802Z,101251.13
2017-10-29T21:56:37.911Z,101266.81
2017-10-29T22:01:40.865Z,101258.53
2017-10-29T22:06:43.183Z,101256.67
2017-10-29T22:11:45.198Z,101270.73
2017-10-29T22:16:47.383Z,101262.31
2017-10-29T22:21:53.266Z,101259.15
2017-10-29T22:26:55.322Z,101267.86
2017-10-29T22:31:58.131Z,101269.25
2017-10-29T22:37:00.286Z,101268.08
2017-10-29T22:42:02.412Z,101274.73
2017-10-29T22:47:04.645Z,101289.14
2017-10-29T22:52:06.909Z,101288.88
2017-10-29T22:57:09.621Z,101295.15
2017-10-29T23:02:12.468Z,101289.70
2017-10-29T23:07:20.358Z,101297.27
2017-10-29T23:12:22.734Z,101308.20
2017-10-29T23:17:25.639Z,101304.02
2017-10-29T23:22:27.661Z,101307.69
2017-10-29T23:27:30.464Z,101309.33
2017-10-29T23:32:32.487Z,101318.73
2017-10-29T23:37:35.300Z,101312.33
2017-10-29T23:42:39.327Z,101313.03
2017-10-29T23:47:42.219Z,101315.94
2017-10-29T23:52:45.061Z,101330.05
2017-10-29T23:57:48.540Z,101325.08
